createdAt,value
2023-04-07T00:00:25.754Z,5.49
2023-04-07T00:02:52.422Z,5.46
2023-04-07T00:05:18.930Z,5.38
2023-04-07T00:07:55.720Z,5.31
2023-04-07T00:10:23.392Z,5.28
2023-04-07T00:12:49.863Z,5.24
2023-04-07T00:15:16.571Z,5.20
2023-04-07T00:17:43.234Z,5.12
2023-04-07T00:20:10.034Z,5.06
2023-04-07T00:22:36.572Z,5.00
2023-04-07T00:25:03.139Z,4.91
2023-04-07T00:27:29.616Z,4.77
2023-04-07T00:29:56.366Z,4.61
2023-04-07T00:32:23.047Z,4.49
2023-04-07T00:34:49.561Z,4.40
2023-04-07T00:37:16.068Z,4.34
2023-04-07T00:39:42.521Z,4.22
2023-04-07T00:42:08.990Z,4.07
2023-04-07T00:44:35.676Z,3.89
2023-04-07T00:47:02.129Z,3.81
2023-04-07T00:49:28.576Z,3.80
2023-04-07T00:51:56.144Z,3.79
2023-04-07T00:54:23.517Z,3.80
2023-04-07T00:56:50.468Z,3.84
2023-04-07T00:59:16.951Z,3.87
2023-04-07T01:01:51.293Z,3.89
2023-04-07T01:04:30.281Z,3.90
2023-04-07T01:06:59.334Z,3.98
2023-04-07T01:09:30.321Z,4.03
2023-04-07T01:12:01.526Z,4.06
2023-04-07T01:14:28.107Z,4.11
2023-04-07T01:16:55.228Z,4.16
2023-04-07T01:19:41.079Z,4.21
2023-04-07T01:22:12.151Z,4.27
2023-04-07T01:25:06.520Z,4.25
2023-04-07T01:27:43.073Z,4.25
2023-04-07T01:30:12.963Z,4.29
2023-04-07T01:32:39.870Z,4.30
2023-04-07T01:35:10.023Z,4.33
2023-04-07T01:37:36.554Z,4.35
2023-04-07T01:40:04.159Z,4.27
2023-04-07T01:42:31.361Z,4.18
2023-04-07T01:44:58.094Z,4.18
2023-04-07T01:47:27.622Z,4.14
2023-04-07T01:49:54.289Z,4.11
2023-04-07T01:52:21.044Z,4.09
2023-04-07T01:54:47.494Z,4.06
2023-04-07T01:57:13.987Z,4.06
2023-04-07T01:59:40.669Z,4.03
2023-04-07T02:02:07.483Z,3.99
2023-04-07T02:04:54.579Z,3.83
2023-04-07T02:07:25.294Z,3.72
2023-04-07T02:09:51.755Z,3.63
2023-04-07T02:12:18.268Z,3.56
2023-04-07T02:14:44.792Z,3.43
2023-04-07T02:17:11.258Z,3.39
2023-04-07T02:19:37.784Z,3.38
2023-04-07T02:22:04.858Z,3.39
2023-04-07T02:24:31.346Z,3.36
2023-04-07T02:26:57.949Z,3.38
2023-04-07T02:29:24.409Z,3.39
2023-04-07T02:31:51.050Z,3.35
2023-04-07T02:34:17.641Z,3.34
2023-04-07T02:36:44.147Z,3.29
2023-04-07T02:39:10.972Z,3.28
2023-04-07T02:41:37.453Z,3.29
2023-04-07T02:44:03.945Z,3.29
2023-04-07T02:46:30.611Z,3.32
2023-04-07T02:48:57.202Z,3.30
2023-04-07T02:51:23.671Z,3.27
2023-04-07T02:53:50.285Z,3.22
2023-04-07T02:56:17.010Z,3.14
2023-04-07T02:58:43.509Z,3.14
2023-04-07T03:01:10.048Z,3.13
2023-04-07T03:03:36.636Z,3.11
2023-04-07T03:06:03.155Z,3.11
2023-04-07T03:08:29.654Z,3.06
2023-04-07T03:10:56.371Z,2.99
2023-04-07T03:13:22.835Z,2.94
2023-04-07T03:15:49.291Z,2.88
2023-04-07T03:18:15.778Z,2.88
2023-04-07T03:20:42.451Z,2.90
2023-04-07T03:23:09.016Z,2.91
2023-04-07T03:25:35.677Z,2.92
2023-04-07T03:28:02.148Z,2.90
2023-04-07T03:30:28.728Z,2.82
2023-04-07T03:32:55.345Z,2.84
2023-04-07T03:35:21.899Z,2.89
2023-04-07T03:37:48.415Z,2.97
2023-04-07T03:40:15.212Z,3.04
2023-04-07T03:42:41.710Z,3.13
2023-04-07T03:45:08.863Z,3.14
2023-04-07T03:47:35.478Z,3.15
2023-04-07T03:50:01.992Z,3.17
2023-04-07T03:52:28.439Z,3.17
2023-04-07T03:54:54.906Z,3.18
2023-04-07T03:57:21.557Z,3.13
2023-04-07T03:59:51.059Z,3.13
2023-04-07T04:02:18.386Z,2.99
2023-04-07T04:04:44.980Z,2.89
2023-04-07T04:07:11.444Z,2.85
2023-04-07T04:09:37.920Z,2.78
2023-04-07T04:12:04.501Z,2.80
2023-04-07T04:14:31.075Z,2.78
2023-04-07T04:16:57.551Z,2.79
2023-04-07T04:19:24.108Z,2.80
2023-04-07T04:21:50.905Z,2.84
2023-04-07T04:24:17.466Z,2.84
2023-04-07T04:26:43.925Z,2.88
2023-04-07T04:29:10.605Z,2.84
2023-04-07T04:31:37.164Z,2.83
2023-04-07T04:34:03.668Z,2.88
2023-04-07T04:36:31.192Z,2.89
2023-04-07T04:38:57.682Z,2.88
2023-04-07T04:41:24.160Z,2.86
2023-04-07T04:43:50.756Z,2.89
2023-04-07T04:46:17.370Z,2.90
2023-04-07T04:48:43.843Z,2.86
2023-04-07T04:51:10.304Z,2.83
2023-04-07T04:53:36.774Z,2.86
2023-04-07T04:56:03.299Z,2.87
2023-04-07T04:58:29.811Z,2.91
2023-04-07T05:01:00.295Z,2.96
2023-04-07T05:03:28.465Z,2.98
2023-04-07T05:05:55.118Z,3.02
2023-04-07T05:08:21.578Z,3.06
2023-04-07T05:10:48.089Z,3.03
2023-04-07T05:13:14.666Z,3.05
2023-04-07T05:15:41.635Z,3.13
2023-04-07T05:18:08.138Z,3.19
2023-04-07T05:20:34.658Z,3.28
2023-04-07T05:23:01.376Z,3.39
2023-04-07T05:25:27.829Z,3.49
2023-04-07T05:27:54.300Z,3.57
2023-04-07T05:30:21.067Z,3.65
2023-04-07T05:32:47.544Z,3.66
2023-04-07T05:35:14.372Z,3.69
2023-04-07T05:37:41.654Z,3.69
2023-04-07T05:40:08.650Z,3.71
2023-04-07T05:42:35.191Z,3.76
2023-04-07T05:45:01.640Z,3.80
2023-04-07T05:47:28.120Z,3.78
2023-04-07T05:49:54.693Z,3.75
2023-04-07T05:52:21.153Z,3.72
2023-04-07T05:54:47.987Z,3.72
2023-04-07T05:57:14.502Z,3.76
2023-04-07T05:59:41.038Z,3.73
2023-04-07T06:02:07.665Z,3.68
2023-04-07T06:04:35.410Z,3.71
2023-04-07T06:07:02.664Z,3.51
2023-04-07T06:09:29.134Z,3.36
2023-04-07T06:11:56.752Z,3.27
2023-04-07T06:14:23.230Z,3.19
2023-04-07T06:16:49.809Z,2.97
2023-04-07T06:19:16.557Z,2.98
2023-04-07T06:21:43.067Z,2.99
2023-04-07T06:24:09.539Z,3.03
2023-04-07T06:26:36.295Z,2.92
2023-04-07T06:29:02.767Z,2.90
2023-04-07T06:31:29.223Z,2.79
2023-04-07T06:33:55.861Z,2.61
2023-04-07T06:36:23.469Z,2.52
2023-04-07T06:38:50.276Z,2.44
2023-04-07T06:41:16.942Z,2.36
2023-04-07T06:43:47.956Z,2.21
2023-04-07T06:46:14.670Z,2.13
2023-04-07T06:48:41.431Z,2.06
2023-04-07T06:51:07.901Z,2.01
2023-04-07T06:53:34.348Z,1.90
2023-04-07T06:56:07.814Z,1.94
2023-04-07T06:58:35.299Z,1.94
2023-04-07T07:01:02.244Z,1.91
2023-04-07T07:03:29.385Z,1.87
2023-04-07T07:05:59.164Z,1.85
2023-04-07T07:08:25.947Z,1.86
2023-04-07T07:10:52.563Z,1.86
2023-04-07T07:13:19.595Z,1.74
2023-04-07T07:15:46.167Z,1.70
2023-04-07T07:18:12.844Z,1.78
2023-04-07T07:20:39.310Z,1.85
2023-04-07T07:23:05.978Z,1.88
2023-04-07T07:25:32.541Z,1.90
2023-04-07T07:27:58.992Z,1.84
2023-04-07T07:30:26.033Z,1.73
2023-04-07T07:32:53.804Z,1.61
2023-04-07T07:35:20.893Z,1.49
2023-04-07T07:37:47.482Z,1.43
2023-04-07T07:40:13.993Z,1.40
2023-04-07T07:42:40.678Z,1.36
2023-04-07T07:45:07.438Z,1.29
2023-04-07T07:47:33.994Z,1.26
2023-04-07T07:50:00.561Z,1.19
2023-04-07T07:52:27.061Z,1.20
2023-04-07T07:54:53.527Z,1.23
2023-04-07T07:57:20.288Z,1.19
2023-04-07T07:59:46.777Z,1.21
2023-04-07T08:02:13.714Z,1.19
2023-04-07T08:04:40.342Z,1.20
2023-04-07T08:07:06.952Z,1.28
2023-04-07T08:09:33.498Z,1.39
2023-04-07T08:12:00.000Z,1.36
2023-04-07T08:14:26.448Z,1.22
2023-04-07T08:16:52.954Z,1.21
2023-04-07T08:19:19.409Z,1.33
2023-04-07T08:21:46.211Z,1.36
2023-04-07T08:24:12.746Z,1.48
2023-04-07T08:26:39.222Z,1.50
2023-04-07T08:29:05.805Z,1.52
2023-04-07T08:31:32.289Z,1.70
2023-04-07T08:33:58.993Z,1.88
2023-04-07T08:36:26.270Z,1.99
2023-04-07T08:38:52.755Z,2.10
2023-04-07T08:41:42.363Z,2.29
2023-04-07T08:44:11.616Z,2.41
2023-04-07T08:46:41.155Z,2.40
2023-04-07T08:49:09.364Z,2.57
2023-04-07T08:51:35.878Z,2.76
2023-04-07T08:54:08.929Z,2.93
2023-04-07T08:56:35.464Z,3.04
2023-04-07T08:59:02.702Z,3.18
2023-04-07T09:01:29.586Z,3.34
2023-04-07T09:03:57.409Z,3.55
2023-04-07T09:06:24.335Z,3.63
2023-04-07T09:08:50.919Z,3.63
2023-04-07T09:11:17.383Z,3.61
2023-04-07T09:13:43.872Z,3.56
2023-04-07T09:16:10.398Z,3.60
2023-04-07T09:18:36.922Z,3.55
2023-04-07T09:21:04.649Z,3.59
2023-04-07T09:23:35.662Z,3.61
2023-04-07T09:26:18.899Z,3.57
2023-04-07T09:28:46.596Z,3.58
2023-04-07T09:31:13.090Z,3.62
2023-04-07T09:33:39.613Z,3.57
2023-04-07T09:36:06.486Z,3.55
2023-04-07T09:38:36.686Z,3.51
2023-04-07T09:41:13.184Z,3.52
2023-04-07T09:43:47.255Z,3.48
2023-04-07T09:46:15.439Z,3.52
2023-04-07T09:48:42.689Z,3.69
2023-04-07T09:51:13.789Z,4.02
2023-04-07T09:53:43.798Z,4.35
2023-04-07T09:56:11.642Z,4.75
2023-04-07T09:58:39.546Z,5.12
2023-04-07T10:01:08.288Z,5.70
2023-04-07T10:03:35.146Z,6.46
2023-04-07T10:06:01.996Z,7.12
2023-04-07T10:08:29.067Z,7.66
2023-04-07T10:10:56.037Z,8.01
2023-04-07T10:13:22.545Z,8.03
2023-04-07T10:15:49.351Z,8.03
2023-04-07T10:18:15.873Z,8.17
2023-04-07T10:20:42.336Z,8.62
2023-04-07T10:23:14.755Z,9.08
2023-04-07T10:25:41.312Z,9.88
2023-04-07T10:28:08.206Z,10.63
2023-04-07T10:30:35.098Z,10.99
2023-04-07T10:33:02.279Z,11.20
2023-04-07T10:35:29.789Z,11.62
2023-04-07T10:38:08.748Z,12.84
2023-04-07T10:40:37.111Z,13.06
2023-04-07T10:43:04.254Z,12.29
2023-04-07T10:45:46.545Z,11.59
2023-04-07T10:48:13.840Z,11.03
2023-04-07T10:50:40.455Z,10.17
2023-04-07T10:53:12.073Z,9.49
2023-04-07T10:55:41.993Z,9.26
2023-04-07T10:58:15.285Z,8.98
2023-04-07T11:00:42.202Z,8.73
2023-04-07T11:03:15.096Z,8.44
2023-04-07T11:05:41.740Z,8.24
2023-04-07T11:08:08.250Z,8.21
2023-04-07T11:10:35.570Z,8.11
2023-04-07T11:13:06.812Z,7.85
2023-04-07T11:15:37.047Z,7.55
2023-04-07T11:18:10.099Z,7.54
2023-04-07T11:20:55.722Z,7.69
2023-04-07T11:23:25.674Z,7.89
2023-04-07T11:25:53.312Z,8.10
2023-04-07T11:28:19.869Z,8.04
2023-04-07T11:30:49.954Z,7.88
2023-04-07T11:33:18.528Z,7.74
2023-04-07T11:35:53.001Z,7.62
2023-04-07T11:38:19.543Z,7.64
2023-04-07T11:40:46.266Z,7.45
2023-04-07T11:43:25.980Z,7.17
2023-04-07T11:46:06.413Z,6.89
2023-04-07T11:48:33.570Z,6.64
2023-04-07T11:51:00.458Z,6.26
2023-04-07T11:53:38.098Z,6.00
2023-04-07T11:56:07.702Z,5.83
2023-04-07T11:58:34.174Z,5.81
2023-04-07T12:01:05.822Z,5.79
2023-04-07T12:03:34.163Z,5.88
2023-04-07T12:06:04.206Z,6.10
2023-04-07T12:08:38.449Z,6.28
2023-04-07T12:11:05.362Z,6.45
2023-04-07T12:13:31.859Z,6.69
2023-04-07T12:16:01.463Z,7.10
2023-04-07T12:18:28.563Z,7.72
2023-04-07T12:20:55.314Z,11.87
2023-04-07T12:23:22.578Z,14.46
2023-04-07T12:25:49.060Z,15.40
2023-04-07T12:28:15.609Z,15.04
2023-04-07T12:30:42.260Z,15.32
2023-04-07T12:33:08.724Z,15.01
2023-04-07T12:35:35.392Z,14.93
2023-04-07T12:38:02.914Z,13.75
2023-04-07T12:40:29.614Z,12.81
2023-04-07T12:42:58.266Z,12.07
2023-04-07T12:45:24.890Z,11.25
2023-04-07T12:47:51.570Z,10.84
2023-04-07T12:50:18.647Z,10.48
2023-04-07T12:52:45.118Z,10.15
2023-04-07T12:55:11.653Z,10.00
2023-04-07T12:57:38.703Z,9.98
2023-04-07T13:00:05.876Z,10.05
2023-04-07T13:02:32.721Z,10.14
2023-04-07T13:04:59.267Z,10.08
2023-04-07T13:07:25.755Z,10.16
2023-04-07T13:09:52.275Z,10.21
2023-04-07T13:12:18.765Z,10.35
2023-04-07T13:14:57.049Z,10.82
2023-04-07T13:17:26.511Z,11.58
2023-04-07T13:19:53.023Z,11.57
2023-04-07T13:22:22.287Z,11.30
2023-04-07T13:24:50.848Z,10.94
2023-04-07T13:27:17.342Z,10.50
2023-04-07T13:29:43.792Z,10.39
2023-04-07T13:32:12.886Z,10.11
2023-04-07T13:34:39.821Z,10.05
2023-04-07T13:37:06.391Z,10.00
2023-04-07T13:39:32.917Z,10.01
2023-04-07T13:41:59.495Z,10.29
2023-04-07T13:44:26.372Z,10.50
2023-04-07T13:46:53.862Z,10.48
2023-04-07T13:49:20.711Z,10.38
2023-04-07T13:51:47.157Z,10.23
2023-04-07T13:54:13.631Z,10.01
2023-04-07T13:56:40.369Z,9.91
2023-04-07T13:59:07.418Z,9.76
2023-04-07T14:01:35.575Z,9.46
2023-04-07T14:04:02.855Z,9.20
2023-04-07T14:06:29.452Z,9.10
2023-04-07T14:08:55.973Z,8.99
2023-04-07T14:11:22.590Z,9.00
2023-04-07T14:13:49.709Z,9.12
2023-04-07T14:16:16.657Z,9.42
2023-04-07T14:18:43.468Z,9.72
2023-04-07T14:21:10.053Z,9.93
2023-04-07T14:23:37.935Z,10.15
2023-04-07T14:26:04.605Z,10.60
2023-04-07T14:28:31.593Z,11.13
2023-04-07T14:30:58.116Z,11.62
2023-04-07T14:33:24.881Z,12.63
2023-04-07T14:35:51.589Z,13.32
2023-04-07T14:38:18.082Z,14.22
2023-04-07T14:40:45.253Z,13.61
2023-04-07T14:43:12.208Z,13.15
2023-04-07T14:45:38.742Z,12.86
2023-04-07T14:48:05.790Z,12.94
2023-04-07T14:50:33.656Z,12.58
2023-04-07T14:53:00.538Z,12.22
2023-04-07T14:55:27.317Z,11.92
2023-04-07T14:57:53.774Z,12.43
2023-04-07T15:00:20.330Z,12.26
2023-04-07T15:02:47.127Z,11.88
2023-04-07T15:05:13.733Z,11.48
2023-04-07T15:07:40.334Z,10.97
2023-04-07T15:10:07.204Z,10.57
2023-04-07T15:12:33.696Z,10.56
2023-04-07T15:15:00.460Z,10.60
2023-04-07T15:17:40.146Z,10.48
2023-04-07T15:20:09.614Z,10.18
2023-04-07T15:22:36.282Z,9.97
2023-04-07T15:25:05.800Z,9.75
2023-04-07T15:27:32.282Z,9.54
2023-04-07T15:29:58.897Z,9.43
2023-04-07T15:32:25.433Z,9.46
2023-04-07T15:34:51.910Z,9.57
2023-04-07T15:37:19.311Z,9.78
2023-04-07T15:39:45.851Z,10.36
2023-04-07T15:42:12.771Z,10.68
2023-04-07T15:44:40.109Z,10.62
2023-04-07T15:47:07.002Z,10.08
2023-04-07T15:49:33.888Z,9.70
2023-04-07T15:52:01.264Z,10.11
2023-04-07T15:54:27.736Z,9.96
2023-04-07T15:56:54.258Z,10.69
2023-04-07T15:59:20.725Z,10.80
2023-04-07T16:01:47.341Z,10.91
2023-04-07T16:04:14.099Z,10.66
2023-04-07T16:06:40.879Z,10.39
2023-04-07T16:09:07.818Z,10.32
2023-04-07T16:11:34.290Z,10.11
2023-04-07T16:14:00.774Z,9.99
2023-04-07T16:16:27.274Z,10.03
2023-04-07T16:18:53.771Z,9.89
2023-04-07T16:21:20.237Z,9.74
2023-04-07T16:23:46.869Z,9.72
2023-04-07T16:26:13.446Z,9.76
2023-04-07T16:28:41.839Z,9.84
2023-04-07T16:31:08.846Z,9.69
2023-04-07T16:33:36.517Z,9.47
2023-04-07T16:36:03.217Z,9.14
2023-04-07T16:38:29.680Z,8.88
2023-04-07T16:41:03.842Z,8.71
2023-04-07T16:43:31.375Z,8.55
2023-04-07T16:45:59.929Z,8.36
2023-04-07T16:48:26.686Z,8.22
2023-04-07T16:50:53.200Z,8.13
2023-04-07T16:53:21.332Z,8.21
2023-04-07T16:55:48.171Z,8.18
2023-04-07T16:58:18.787Z,8.08
2023-04-07T17:00:45.793Z,7.98
2023-04-07T17:03:14.276Z,7.90
2023-04-07T17:05:41.195Z,7.83
2023-04-07T17:08:07.679Z,7.80
2023-04-07T17:10:34.144Z,7.72
2023-04-07T17:13:00.617Z,7.67
2023-04-07T17:15:27.092Z,7.49
2023-04-07T17:17:53.631Z,7.24
2023-04-07T17:20:20.178Z,7.08
2023-04-07T17:22:48.915Z,7.03
2023-04-07T17:25:18.403Z,7.04
2023-04-07T17:27:46.371Z,7.00
2023-04-07T17:30:13.281Z,6.88
2023-04-07T17:32:39.805Z,6.75
2023-04-07T17:35:06.742Z,6.58
2023-04-07T17:37:33.344Z,6.40
2023-04-07T17:40:01.041Z,6.26
2023-04-07T17:42:27.495Z,6.01
2023-04-07T17:44:54.077Z,5.83
2023-04-07T17:47:20.603Z,5.67
2023-04-07T17:49:47.062Z,5.52
2023-04-07T17:52:14.158Z,5.41
2023-04-07T17:54:41.166Z,5.27
2023-04-07T17:57:08.518Z,5.03
2023-04-07T17:59:34.983Z,4.91
2023-04-07T18:02:08.651Z,4.71
2023-04-07T18:04:37.209Z,4.57
2023-04-07T18:07:03.817Z,4.44
2023-04-07T18:09:30.530Z,4.33
2023-04-07T18:11:56.999Z,4.18
2023-04-07T18:14:23.532Z,4.02
2023-04-07T18:16:50.059Z,3.93
2023-04-07T18:19:17.417Z,3.84
2023-04-07T18:21:43.892Z,3.76
2023-04-07T18:24:10.387Z,3.68
2023-04-07T18:26:36.842Z,3.61
2023-04-07T18:29:03.554Z,3.56
2023-04-07T18:31:30.231Z,3.48
2023-04-07T18:33:56.709Z,3.36
2023-04-07T18:36:27.013Z,3.24
2023-04-07T18:38:53.478Z,3.14
2023-04-07T18:41:19.953Z,3.06
2023-04-07T18:43:47.608Z,2.99
2023-04-07T18:46:14.280Z,2.94
2023-04-07T18:48:44.369Z,2.89
2023-04-07T18:51:11.700Z,2.84
2023-04-07T18:53:38.559Z,2.80
2023-04-07T18:56:05.072Z,2.82
2023-04-07T18:58:31.821Z,2.85
2023-04-07T19:00:58.500Z,2.84
2023-04-07T19:03:25.312Z,2.89
2023-04-07T19:05:52.765Z,2.96
2023-04-07T19:08:19.430Z,3.01
2023-04-07T19:10:46.072Z,3.06
2023-04-07T19:13:12.584Z,3.13
2023-04-07T19:15:40.634Z,3.14
2023-04-07T19:18:09.967Z,3.14
2023-04-07T19:20:36.538Z,3.11
2023-04-07T19:23:03.235Z,3.09
2023-04-07T19:25:30.666Z,3.00
2023-04-07T19:27:57.651Z,2.95
2023-04-07T19:30:24.151Z,2.89
2023-04-07T19:32:50.917Z,2.84
2023-04-07T19:35:17.420Z,2.78
2023-04-07T19:37:44.727Z,2.73
2023-04-07T19:40:12.179Z,2.68
2023-04-07T19:42:39.860Z,2.70
2023-04-07T19:45:08.136Z,2.72
2023-04-07T19:47:35.715Z,2.79
2023-04-07T19:50:02.921Z,2.78
2023-04-07T19:52:30.928Z,2.77
2023-04-07T19:54:58.023Z,2.79
2023-04-07T19:57:24.505Z,2.80
2023-04-07T19:59:50.954Z,2.79
2023-04-07T20:02:17.854Z,2.73
2023-04-07T20:04:44.424Z,2.67
2023-04-07T20:07:10.873Z,2.64
2023-04-07T20:09:37.559Z,2.57
2023-04-07T20:12:04.126Z,2.51
2023-04-07T20:14:30.591Z,2.46
2023-04-07T20:16:57.172Z,2.43
2023-04-07T20:19:23.699Z,2.37
2023-04-07T20:21:50.417Z,2.30
2023-04-07T20:24:18.726Z,2.22
2023-04-07T20:26:45.923Z,2.18
2023-04-07T20:29:12.472Z,2.14
2023-04-07T20:31:38.981Z,2.09
2023-04-07T20:34:05.519Z,2.09
2023-04-07T20:36:32.014Z,2.13
2023-04-07T20:38:58.656Z,2.17
2023-04-07T20:41:25.313Z,2.26
2023-04-07T20:43:51.883Z,2.30
2023-04-07T20:46:19.152Z,2.31
2023-04-07T20:48:45.999Z,2.29
2023-04-07T20:51:13.378Z,2.29
2023-04-07T20:53:40.447Z,2.28
2023-04-07T20:56:06.941Z,2.19
2023-04-07T20:58:33.386Z,2.08
2023-04-07T21:01:00.683Z,2.00
2023-04-07T21:03:27.766Z,1.89
2023-04-07T21:05:55.317Z,1.83
2023-04-07T21:08:24.000Z,1.79
2023-04-07T21:10:52.257Z,1.82
2023-04-07T21:13:19.358Z,1.85
2023-04-07T21:15:45.908Z,1.88
2023-04-07T21:18:12.474Z,1.85
2023-04-07T21:20:38.953Z,1.81
2023-04-07T21:23:07.553Z,1.78
2023-04-07T21:25:36.260Z,1.75
2023-04-07T21:28:02.739Z,1.70
2023-04-07T21:30:29.192Z,1.63
2023-04-07T21:32:55.878Z,1.62
2023-04-07T21:35:22.491Z,1.62
2023-04-07T21:37:49.002Z,1.65
2023-04-07T21:40:15.531Z,1.65
2023-04-07T21:42:42.443Z,1.66
2023-04-07T21:45:09.643Z,1.67
2023-04-07T21:47:36.533Z,1.64
2023-04-07T21:50:03.106Z,1.66
2023-04-07T21:52:29.569Z,1.72
2023-04-07T21:54:56.279Z,1.74
2023-04-07T21:57:22.804Z,1.77
2023-04-07T21:59:49.319Z,1.78
2023-04-07T22:02:15.905Z,1.81
2023-04-07T22:04:42.636Z,1.82
2023-04-07T22:07:09.153Z,1.84
2023-04-07T22:09:35.691Z,1.91
2023-04-07T22:12:02.788Z,1.95
2023-04-07T22:14:29.267Z,1.99
2023-04-07T22:16:56.020Z,2.00
2023-04-07T22:19:22.484Z,2.06
2023-04-07T22:21:49.459Z,2.09
2023-04-07T22:24:16.366Z,2.14
2023-04-07T22:26:42.825Z,2.19
2023-04-07T22:29:09.556Z,2.21
2023-04-07T22:31:36.351Z,2.24
2023-04-07T22:34:02.831Z,2.21
2023-04-07T22:36:29.295Z,2.20
2023-04-07T22:38:56.353Z,2.21
2023-04-07T22:41:22.807Z,2.19
2023-04-07T22:43:49.317Z,2.17
2023-04-07T22:46:17.661Z,2.14
2023-04-07T22:48:44.202Z,2.10
2023-04-07T22:51:11.006Z,2.02
2023-04-07T22:53:37.508Z,1.92
2023-04-07T22:56:04.546Z,1.88
2023-04-07T22:58:31.240Z,1.83
2023-04-07T23:00:57.730Z,1.74
2023-04-07T23:03:24.381Z,1.59
2023-04-07T23:05:50.884Z,1.47
2023-04-07T23:08:17.340Z,1.37
2023-04-07T23:10:43.823Z,1.24
2023-04-07T23:13:10.271Z,1.14
2023-04-07T23:15:36.786Z,1.07
2023-04-07T23:18:03.397Z,1.04
2023-04-07T23:20:29.908Z,1.02
2023-04-07T23:22:56.443Z,1.08
2023-04-07T23:25:23.033Z,1.18
2023-04-07T23:27:49.585Z,1.25
2023-04-07T23:30:16.256Z,1.32
2023-04-07T23:32:42.852Z,1.35
2023-04-07T23:35:09.776Z,1.40
2023-04-07T23:37:36.243Z,1.42
2023-04-07T23:40:02.731Z,1.45
2023-04-07T23:42:29.173Z,1.48
2023-04-07T23:44:55.643Z,1.48
2023-04-07T23:47:22.184Z,1.51
2023-04-07T23:49:48.653Z,1.52
2023-04-07T23:52:16.132Z,1.50
2023-04-07T23:54:42.766Z,1.46
2023-04-07T23:57:09.406Z,1.44
2023-04-07T23:59:36.059Z,1.47
